Meadow Bridge, West Virginia
Current Conditions -  °F | °C
As of 9:51 AM on Thursday 30 Oct 2014 (Local Time) from KBKW Reporting Station
Overcast Overcast  
Wind Chill: 33°   Ceiling: 3200
Heat Index: 39°   Visibility: 10mi
Dew Point: 33°   Wind: 8mph
Humidity: 79%   Direction: 350°N
Pressure: 30.11"   Gusts: NA
Location:  37.86°N, 80.85°W
Report Text: KBKW 301351Z AUTO 35007KT 10SM OVC032 04/01 A3011 RMK AO2 SLP206 T00390006 TSNO
Loading
Personal Weather Stations






























Interactive Weather Map
Tropical Storm Tracking
New forecast layout! Learn more

10-Day Weather Forecast

Advertisements
Track Severe Weather on mobile